Nearby METAR Reports

 

EGVO - Odiham Raf, United Kingdom
Distance from station: ESE 6mi, 10km
Updated: Thu, 17-Jan-2019 18:50 GMT
Clear
Clear
 Wind from W
Wind: W 6 mph , 9 km/h
Temperature: 34°F , 1°C
Wind Chill: 29°F , -2°C
Dew Point: 27°F , -3°C
Humidity: 75%
Barometer: 30.03 inHg , 1017 hPa
Summary: Clear
Visibility: greater than 7 miles , 10 km
2019/01/17 18:50 EGVO 171850Z 28005KT CAVOK 01/M03 Q1017 BLU NOSIG
EGLF - Farnborough, United Kingdom
Distance from station: E 14mi, 22km
Updated: Thu, 17-Jan-2019 19:20 GMT
Clear
Clear
 Wind from W
Wind: W 5 mph , 7 km/h
Temperature: 30°F , -1°C
Wind Chill: 25°F , -4°C
Dew Point: 23°F , -5°C
Humidity: 75%
Barometer: 30.06 inHg , 1018 hPa
Summary: Clear
Visibility: greater than 7 miles , 10 km
2019/01/17 19:20 EGLF 171920Z 27004KT CAVOK M01/M05 Q1018
 
EGVP - Middle Wallop, United Kingdom
Distance from station: WSW 23mi, 36km
Updated: Thu, 17-Jan-2019 18:50 GMT
Clear
Clear
 Wind from NNW
Wind: NNW 3 mph , 6 km/h
Temperature: 32°F , 0°C
Dew Point: 27°F , -3°C
Humidity: 80%
Barometer: 30.06 inHg , 1018 hPa
Summary: Clear
Visibility: greater than 7 miles , 10 km
2019/01/17 18:50 EGVP 171850Z 33003KT CAVOK 00/M03 Q1018 BLU NOSIG
EGHI - Southampton Wx C, United Kingdom
Distance from station: SSW 24mi, 39km
Updated: Thu, 17-Jan-2019 19:20 GMT
Clear
Clear
 Wind from WNW
Wind: WNW 2 mph , 4 km/h
Temperature: 34°F , 1°C
Dew Point: 25°F , -4°C
Humidity: 70%
Barometer: 30.09 inHg , 1019 hPa
Summary: Clear
Visibility: greater than 7 miles , 10 km
2019/01/17 19:20 EGHI 171920Z 30002KT CAVOK 01/M04 Q1019
 
EGUB - Benson Raf, United Kingdom
Distance from station: N 24mi, 39km
Updated: Thu, 17-Jan-2019 18:50 GMT
Clear
Clear
 Wind from E
Wind: E 1 mph , 2 km/h
Temperature: 28°F , -2°C
Dew Point: 23°F , -5°C
Humidity: 80%
Barometer: 30.06 inHg , 1018 hPa
Summary: Clear
Visibility: greater than 7 miles , 10 km
2019/01/17 18:50 EGUB 171850Z 09001KT CAVOK M02/M05 Q1018 BLU NOSIG
EGDM - Boscombe Down, United Kingdom
Distance from station: WSW 29mi, 47km
Updated: Thu, 17-Jan-2019 18:50 GMT
Mostly Cloudy
Mostly Cloudy
 Wind from WNW
Wind: WNW 6 mph , 9 km/h
Temperature: 32°F , 0°C
Wind Chill: 26°F , -3°C
Dew Point: 27°F , -3°C
Humidity: 80%
Barometer: 30.06 inHg , 1018 hPa
Clouds: Mostly Cloudy
Visibility: 6 miles , 10 km
Cloud details: Mostly Cloudy 21000 ft
2019/01/17 18:50 EGDM 171850Z AUTO 29005KT 9999 BKN210/// 00/M03 Q1018
 
EGLL - London/Heathrow, United Kingdom
Distance from station: ENE 31mi, 51km
Updated: Thu, 17-Jan-2019 19:20 GMT
Clear
Clear
 Wind from W
Wind: W 7 mph , 11 km/h
Temperature: 37°F , 3°C
Wind Chill: 32°F , 0°C
Dew Point: 27°F , -3°C
Humidity: 65%
Barometer: 30.06 inHg , 1018 hPa
Clouds: Clear
Visibility: 6 miles , 10 km
2019/01/17 19:20 EGLL 171920Z AUTO 28006KT 9999 NCD 03/M03 Q1018 NOSIG
EGWU - Northolt Raf, United Kingdom
Distance from station: NE 35mi, 56km
Updated: Thu, 17-Jan-2019 18:50 GMT
Clear
Clear
 Wind from NNW
Wind: NNW 3 mph , 6 km/h
Temperature: 34°F , 1°C
Dew Point: 25°F , -4°C
Humidity: 70%
Barometer: 30.03 inHg , 1017 hPa
Summary: Clear
Visibility: greater than 7 miles , 10 km
2019/01/17 18:50 EGWU 171850Z 34003KT CAVOK 01/M04 Q1017 BLU NOSIG
 
EGVA - Fairford Raf, United Kingdom
Distance from station: NW 40mi, 65km
Updated: Thu, 17-Jan-2019 18:56 GMT
Clear
Clear
 Wind from W
Wind: W 6 mph , 9 km/h
Temperature: 32°F , 0°C
Wind Chill: 26°F , -3°C
Dew Point: 25°F , -4°C
Humidity: 75%
Barometer: 30.06 inHg , 1017.9 hPa
Clouds: Clear
2019/01/17 18:56 EGVA 171856Z AUTO 27005KT M M CLR 00/M04 A3006 RMK AO2 SLP187 T10031040 RVRNO $
EGKK - London/Gatwick A, United Kingdom
Distance from station: ESE 41mi, 66km
Updated: Thu, 17-Jan-2019 19:20 GMT
Clear
Clear
 Wind from WNW
Wind: WNW 5 mph , 7 km/h
Temperature: 36°F , 2°C
Wind Chill: 32°F , 0°C
Dew Point: 25°F , -4°C
Humidity: 65%
Barometer: 30.06 inHg , 1018 hPa
Summary: Clear
Visibility: greater than 7 miles , 10 km
2019/01/17 19:20 EGKK 171920Z 30004KT 270V330 CAVOK 02/M04 Q1018
 
EGVN - Brize Norton Raf, United Kingdom
Distance from station: NNW 41mi, 66km
Updated: Thu, 17-Jan-2019 18:50 GMT
Clear
Clear
 Wind from W
Wind: W 3 mph , 6 km/h
Temperature: 34°F , 1°C
Dew Point: 27°F , -3°C
Humidity: 75%
Barometer: 30.06 inHg , 1018 hPa
Summary: Clear
Visibility: greater than 7 miles , 10 km
2019/01/17 18:50 EGVN 171850Z 26003KT CAVOK 01/M03 Q1018 BLU NOSIG
EGKA - Shoreham-By-Sea, United Kingdom
Distance from station: SE 45mi, 73km
Updated: Thu, 17-Jan-2019 19:20 GMT
Clear
Clear
 Wind from N
Wind: N 5 mph , 7 km/h
Temperature: 34°F , 1°C
Wind Chill: 29°F , -2°C
Dew Point: 25°F , -4°C
Humidity: 70%
Barometer: 30.06 inHg , 1018 hPa
Summary: Clear
Visibility: greater than 7 miles , 10 km
2019/01/17 19:20 EGKA 171920Z 35004KT CAVOK 01/M04 Q1018
 
EGHH - Bournemouth Airp, United Kingdom
Distance from station: SW 46mi, 75km
Updated: Thu, 17-Jan-2019 19:20 GMT
Clear
Clear
 Wind from varies
Wind: varies 3 mph , 6 km/h
Temperature: 28°F , -2°C
Dew Point: 25°F , -4°C
Humidity: 86%
Barometer: 30.09 inHg , 1019 hPa
Summary: Clear
Visibility: greater than 7 miles , 10 km
2019/01/17 19:20 EGHH 171920Z VRB03KT CAVOK M02/M04 Q1019
EGKB - Biggin Hill, United Kingdom
Distance from station: E 48mi, 77km
Updated: Thu, 17-Jan-2019 19:20 GMT
Clear
Clear
 Wind from WNW
Wind: WNW 7 mph , 11 km/h
Temperature: 34°F , 1°C
Wind Chill: 28°F , -2°C
Dew Point: 25°F , -4°C
Humidity: 70%
Barometer: 30.03 inHg , 1017 hPa
Summary: Clear
Visibility: greater than 7 miles , 10 km
2019/01/17 19:20 EGKB 171920Z 30006KT CAVOK 01/M04 Q1017

Metar display script from Saratoga-Weather.org